Time,TemperatureF,DewpointF,PressureIn,WindDirection,WindDirectionDegrees,WindSpeedMPH,WindSpeedGustMPH,Humidity,HourlyPrecipIn,Conditions,Clouds,dailyrainin,SoftwareType,DateUTC
2013-07-18 00:02:00,72.2,54.0,29.71,South,176,1.0,5.0,54,0.00,,,0.00,weatherlink.com 1.10,2013-07-18 06:02:00,
2013-07-18 00:17:00,72.0,55.0,29.71,WSW,257,0.0,3.0,55,0.00,,,0.00,weatherlink.com 1.10,2013-07-18 06:17:00,
2013-07-18 00:32:00,72.0,55.0,29.70,East,93,0.0,2.0,55,0.00,,,0.00,weatherlink.com 1.10,2013-07-18 06:32:00,
2013-07-18 00:47:00,71.6,55.0,29.71,SSE,158,0.0,3.0,57,0.00,,,0.00,weatherlink.com 1.10,2013-07-18 06:47:00,
2013-07-18 01:17:00,71.4,56.0,29.70,SE,134,1.0,6.0,58,0.00,,,0.00,weatherlink.com 1.10,2013-07-18 07:17:00,
2013-07-18 01:32:00,70.9,56.0,29.70,SE,139,3.0,6.0,59,0.00,,,0.00,weatherlink.com 1.10,2013-07-18 07:32:00,
2013-07-18 01:47:00,70.0,55.0,29.70,SSE,151,0.0,2.0,60,0.00,,,0.00,weatherlink.com 1.10,2013-07-18 07:47:00,
2013-07-18 02:02:00,68.8,55.0,29.70,SSE,147,0.0,3.0,62,0.00,,,0.00,weatherlink.com 1.10,2013-07-18 08:02:00,
2013-07-18 02:17:00,68.4,55.0,29.70,South,184,0.0,3.0,63,0.00,,,0.00,weatherlink.com 1.10,2013-07-18 08:17:00,
2013-07-18 02:32:00,68.2,55.0,29.69,South,191,0.0,4.0,64,0.00,,,0.00,weatherlink.com 1.10,2013-07-18 08:32:00,
2013-07-18 02:47:00,67.6,55.0,29.70,SE,131,1.0,2.0,65,0.00,,,0.00,weatherlink.com 1.10,2013-07-18 08:47:00,
2013-07-18 03:02:00,66.9,55.0,29.69,SSE,155,0.0,3.0,66,0.00,,,0.00,weatherlink.com 1.10,2013-07-18 09:02:00,
2013-07-18 03:17:00,66.7,55.0,29.69,SSE,155,0.0,5.0,67,0.00,,,0.00,weatherlink.com 1.10,2013-07-18 09:17:00,
2013-07-18 03:32:00,66.3,55.0,29.68,NW,307,1.0,3.0,68,0.00,,,0.00,weatherlink.com 1.10,2013-07-18 09:32:00,
2013-07-18 03:48:00,66.0,56.0,29.68,South,172,1.0,5.0,69,0.00,,,0.00,weatherlink.com 1.10,2013-07-18 09:48:00,
2013-07-18 04:03:00,65.2,55.0,29.68,East,92,2.0,4.0,70,0.00,,,0.00,weatherlink.com 1.10,2013-07-18 10:03:00,
2013-07-18 04:18:00,65.0,55.0,29.67,South,171,0.0,4.0,71,0.00,,,0.00,weatherlink.com 1.10,2013-07-18 10:18:00,
2013-07-18 04:33:00,64.7,55.0,29.67,NNE,29,2.0,5.0,71,0.00,,,0.00,weatherlink.com 1.10,2013-07-18 10:33:00,
2013-07-18 04:48:00,64.1,55.0,29.68,NNE,32,3.0,4.0,72,0.00,,,0.00,weatherlink.com 1.10,2013-07-18 10:48:00,
2013-07-18 05:03:00,63.7,55.0,29.68,ESE,110,0.0,3.0,74,0.00,,,0.00,weatherlink.com 1.10,2013-07-18 11:03:00,
2013-07-18 05:18:00,62.8,55.0,29.68,NNW,334,0.0,2.0,76,0.00,,,0.00,weatherlink.com 1.10,2013-07-18 11:18:00,
2013-07-18 05:33:00,62.7,55.0,29.68,SE,136,0.0,4.0,77,0.00,,,0.00,weatherlink.com 1.10,2013-07-18 11:33:00,
2013-07-18 05:48:00,62.7,55.0,29.69,SE,124,0.0,0.0,77,0.00,,,0.00,weatherlink.com 1.10,2013-07-18 11:48:00,
2013-07-18 06:03:00,64.3,56.0,29.69,NW,321,0.0,0.0,74,0.00,,,0.00,weatherlink.com 1.10,2013-07-18 12:03:00,
2013-07-18 06:18:00,65.8,57.0,29.68,North,352,0.0,2.0,72,0.00,,,0.00,weatherlink.com 1.10,2013-07-18 12:18:00,
2013-07-18 06:33:00,66.8,57.0,29.68,NW,316,0.0,2.0,71,0.00,,,0.00,weatherlink.com 1.10,2013-07-18 12:33:00,
2013-07-18 06:48:00,68.0,57.0,29.68,North,354,0.0,1.0,68,0.00,,,0.00,weatherlink.com 1.10,2013-07-18 12:48:00,
2013-07-18 07:03:00,69.7,57.0,29.69,NNE,13,0.0,1.0,65,0.00,,,0.00,weatherlink.com 1.10,2013-07-18 13:03:00,
2013-07-18 07:18:00,71.7,58.0,29.69,NNW,333,0.0,3.0,62,0.00,,,0.00,weatherlink.com 1.10,2013-07-18 13:18:00,
2013-07-18 07:33:00,72.9,58.0,29.69,South,187,0.0,1.0,59,0.00,,,0.00,weatherlink.com 1.10,2013-07-18 13:33:00,
2013-07-18 07:48:00,74.9,58.0,29.69,SE,129,0.0,1.0,55,0.00,,,0.00,weatherlink.com 1.10,2013-07-18 13:48:00,
2013-07-18 08:03:00,74.2,59.0,29.69,South,174,0.0,1.0,59,0.00,,,0.00,weatherlink.com 1.10,2013-07-18 14:03:00,
2013-07-18 08:18:00,73.5,58.0,29.69,WSW,247,0.0,1.0,59,0.00,,,0.00,weatherlink.com 1.10,2013-07-18 14:18:00,
2013-07-18 08:33:00,74.5,58.0,29.69,West,280,0.0,0.0,56,0.00,,,0.00,weatherlink.com 1.10,2013-07-18 14:33:00,
2013-07-18 08:48:00,75.7,59.0,29.69,West,273,0.0,1.0,57,0.00,,,0.00,weatherlink.com 1.10,2013-07-18 14:48:00,
2013-07-18 09:03:00,76.6,58.0,29.69,WSW,256,0.0,1.0,52,0.00,,,0.00,weatherlink.com 1.10,2013-07-18 15:03:00,
2013-07-18 09:18:00,78.2,57.0,29.68,West,272,0.0,1.0,48,0.00,,,0.00,weatherlink.com 1.10,2013-07-18 15:18:00,
2013-07-18 09:33:00,79.9,57.0,29.68,SW,231,0.0,1.0,46,0.00,,,0.00,weatherlink.com 1.10,2013-07-18 15:33:00,
2013-07-18 09:48:00,81.0,57.0,29.67,West,274,0.0,1.0,44,0.00,,,0.00,weatherlink.com 1.10,2013-07-18 15:48:00,
2013-07-18 10:03:00,82.6,59.0,29.67,WNW,288,0.0,1.0,44,0.00,,,0.00,weatherlink.com 1.10,2013-07-18 16:03:00,
2013-07-18 10:18:00,83.9,58.0,29.67,WNW,295,3.0,4.0,41,0.00,,,0.00,weatherlink.com 1.10,2013-07-18 16:18:00,
2013-07-18 10:33:00,85.0,59.0,29.67,SSW,207,0.0,1.0,41,0.00,,,0.00,weatherlink.com 1.10,2013-07-18 16:33:00,
2013-07-18 10:48:00,87.4,58.0,29.66,ESE,103,0.0,2.0,37,0.00,,,0.00,weatherlink.com 1.10,2013-07-18 16:48:00,
2013-07-18 11:04:00,91.5,59.0,29.66,SE,127,0.0,1.0,33,0.00,,,0.00,weatherlink.com 1.10,2013-07-18 17:04:00,
2013-07-18 11:19:00,92.4,59.0,29.65,West,276,0.0,1.0,33,0.00,,,0.00,weatherlink.com 1.10,2013-07-18 17:19:00,
2013-07-18 11:34:00,91.2,58.0,29.65,NNW,339,0.0,1.0,33,0.00,,,0.00,weatherlink.com 1.10,2013-07-18 17:34:00,
2013-07-18 11:49:00,93.4,58.0,29.64,NNW,329,0.0,1.0,30,0.00,,,0.00,weatherlink.com 1.10,2013-07-18 17:49:00,
2013-07-18 12:04:00,94.7,58.0,29.63,WNW,294,0.0,1.0,29,0.00,,,0.00,weatherlink.com 1.10,2013-07-18 18:04:00,
2013-07-18 12:19:00,93.6,52.0,29.63,NW,309,6.0,16.0,24,0.00,,,0.00,weatherlink.com 1.10,2013-07-18 18:19:00,
2013-07-18 12:34:00,94.5,56.0,29.63,West,276,12.0,14.0,27,0.00,,,0.00,weatherlink.com 1.10,2013-07-18 18:34:00,
2013-07-18 12:49:00,94.6,54.0,29.62,NW,310,6.0,15.0,25,0.00,,,0.00,weatherlink.com 1.10,2013-07-18 18:49:00,
2013-07-18 13:04:00,95.4,53.0,29.62,WNW,291,5.0,13.0,24,0.00,,,0.00,weatherlink.com 1.10,2013-07-18 19:04:00,
2013-07-18 13:19:00,95.5,53.0,29.61,NW,316,11.0,16.0,24,0.00,,,0.00,weatherlink.com 1.10,2013-07-18 19:19:00,
2013-07-18 13:34:00,96.3,54.0,29.61,WNW,287,4.0,13.0,24,0.00,,,0.00,weatherlink.com 1.10,2013-07-18 19:34:00,
2013-07-18 13:49:00,93.5,54.0,29.61,WNW,296,9.0,10.0,26,0.00,,,0.00,weatherlink.com 1.10,2013-07-18 19:49:00,
2013-07-18 14:04:00,93.5,54.0,29.60,WNW,295,4.0,12.0,26,0.00,,,0.00,weatherlink.com 1.10,2013-07-18 20:04:00,
2013-07-18 14:19:00,93.7,55.0,29.59,NW,323,4.0,9.0,27,0.00,,,0.00,weatherlink.com 1.10,2013-07-18 20:19:00,
2013-07-18 14:34:00,94.5,55.0,29.59,NNE,15,5.0,11.0,26,0.00,,,0.00,weatherlink.com 1.10,2013-07-18 20:34:00,
2013-07-18 14:49:00,94.3,54.0,29.59,North,352,8.0,13.0,26,0.00,,,0.00,weatherlink.com 1.10,2013-07-18 20:49:00,
2013-07-18 15:04:00,94.5,53.0,29.58,NNW,345,4.0,12.0,24,0.00,,,0.00,weatherlink.com 1.10,2013-07-18 21:04:00,
2013-07-18 15:19:00,94.1,53.0,29.58,NNE,15,5.0,10.0,25,0.00,,,0.00,weatherlink.com 1.10,2013-07-18 21:19:00,
2013-07-18 15:34:00,94.8,54.0,29.58,WSW,248,2.0,9.0,25,0.00,,,0.00,weatherlink.com 1.10,2013-07-18 21:34:00,
2013-07-18 15:49:00,96.2,54.0,29.58,NNE,32,6.0,14.0,24,0.00,,,0.00,weatherlink.com 1.10,2013-07-18 21:49:00,
2013-07-18 16:19:00,97.7,53.0,29.57,North,350,3.0,9.0,22,0.00,,,0.00,weatherlink.com 1.10,2013-07-18 22:19:00,
2013-07-18 16:34:00,97.8,53.0,29.57,NNW,327,6.0,11.0,22,0.00,,,0.00,weatherlink.com 1.10,2013-07-18 22:34:00,
2013-07-18 16:49:00,97.3,51.0,29.57,NW,310,5.0,12.0,21,0.00,,,0.00,weatherlink.com 1.10,2013-07-18 22:49:00,
2013-07-18 17:04:00,97.0,52.0,29.56,North,358,7.0,12.0,22,0.00,,,0.00,weatherlink.com 1.10,2013-07-18 23:04:00,
2013-07-18 17:19:00,96.4,52.0,29.55,NNW,346,4.0,8.0,22,0.00,,,0.00,weatherlink.com 1.10,2013-07-18 23:19:00,
2013-07-18 17:34:00,97.5,53.0,29.55,NNW,331,4.0,14.0,22,0.00,,,0.00,weatherlink.com 1.10,2013-07-18 23:34:00,
2013-07-18 17:49:00,98.3,52.0,29.55,NW,308,4.0,10.0,21,0.00,,,0.00,weatherlink.com 1.10,2013-07-18 23:49:00,
2013-07-18 18:04:00,97.2,54.0,29.55,NE,35,8.0,14.0,23,0.00,,,0.00,weatherlink.com 1.10,2013-07-19 00:04:00,
2013-07-18 18:19:00,95.1,52.0,29.54,NW,314,2.0,13.0,23,0.00,,,0.00,weatherlink.com 1.10,2013-07-19 00:19:00,
2013-07-18 18:34:00,95.1,53.0,29.54,North,349,7.0,10.0,24,0.00,,,0.00,weatherlink.com 1.10,2013-07-19 00:34:00,
2013-07-18 18:49:00,94.7,53.0,29.54,ENE,64,5.0,10.0,24,0.00,,,0.00,weatherlink.com 1.10,2013-07-19 00:49:00,
2013-07-18 19:04:00,94.4,52.0,29.55,NE,34,4.0,11.0,24,0.00,,,0.00,weatherlink.com 1.10,2013-07-19 01:04:00,
2013-07-18 19:19:00,94.8,53.0,29.56,NNE,16,4.0,10.0,24,0.00,,,0.00,weatherlink.com 1.10,2013-07-19 01:19:00,
2013-07-18 19:34:00,92.8,53.0,29.56,SW,235,2.0,9.0,26,0.00,,,0.00,weatherlink.com 1.10,2013-07-19 01:34:00,
2013-07-18 19:49:00,91.5,54.0,29.56,SSW,193,3.0,8.0,28,0.00,,,0.00,weatherlink.com 1.10,2013-07-19 01:49:00,
2013-07-18 20:04:00,90.3,54.0,29.57,NE,53,6.0,10.0,29,0.00,,,0.00,weatherlink.com 1.10,2013-07-19 02:04:00,
2013-07-18 20:19:00,88.8,58.0,29.58,NW,316,9.0,26.0,35,0.00,,,0.00,weatherlink.com 1.10,2013-07-19 02:19:00,
2013-07-18 20:34:00,84.1,58.0,29.60,NW,309,19.0,27.0,41,0.00,,,0.00,weatherlink.com 1.10,2013-07-19 02:34:00,
2013-07-18 20:49:00,81.4,55.0,29.61,NNE,25,16.0,28.0,41,0.02,,,0.02,weatherlink.com 1.10,2013-07-19 02:49:00,
2013-07-18 21:04:00,79.8,58.0,29.62,ESE,118,7.0,17.0,48,0.02,,,0.02,weatherlink.com 1.10,2013-07-19 03:04:00,
2013-07-18 21:19:00,79.0,59.0,29.62,NW,326,3.0,13.0,51,0.02,,,0.02,weatherlink.com 1.10,2013-07-19 03:19:00,
2013-07-18 21:34:00,79.2,61.0,29.66,SSW,212,7.0,10.0,54,0.02,,,0.02,weatherlink.com 1.10,2013-07-19 03:34:00,
2013-07-18 21:50:00,79.0,59.0,29.67,SW,222,9.0,11.0,50,0.00,,,0.02,weatherlink.com 1.10,2013-07-19 03:50:00,
2013-07-18 22:05:00,77.4,59.0,29.67,South,177,2.0,7.0,53,0.00,,,0.02,weatherlink.com 1.10,2013-07-19 04:05:00,
2013-07-18 22:20:00,76.4,59.0,29.67,SSW,196,3.0,8.0,55,0.00,,,0.02,weatherlink.com 1.10,2013-07-19 04:20:00,
2013-07-18 22:35:00,75.3,59.0,29.68,South,179,3.0,6.0,58,0.00,,,0.02,weatherlink.com 1.10,2013-07-19 04:35:00,
2013-07-18 22:50:00,74.3,59.0,29.68,South,188,1.0,5.0,60,0.00,,,0.02,weatherlink.com 1.10,2013-07-19 04:50:00,
2013-07-18 23:05:00,74.0,60.0,29.68,SSW,200,0.0,6.0,61,0.00,,,0.02,weatherlink.com 1.10,2013-07-19 05:05:00,
2013-07-18 23:20:00,73.4,59.0,29.69,SSE,159,0.0,1.0,61,0.00,,,0.02,weatherlink.com 1.10,2013-07-19 05:20:00,
2013-07-18 23:35:00,72.6,59.0,29.68,South,169,0.0,1.0,63,0.00,,,0.02,weatherlink.com 1.10,2013-07-19 05:35:00,
2013-07-18 23:50:00,72.8,58.0,29.69,SSW,201,1.0,1.0,61,0.00,,,0.02,weatherlink.com 1.10,2013-07-19 05:50:00,